Terminal Aerodrome Forecast
Issued by NWS

Home | Current Version | Previous Version | Graphics & Text | Print | Product List | Glossary On
Versions: 1 2 3 4 5 6 7 8 9 10 11 12 13 14 15 16
644
FTUS43 KGRB 291720
TAFCWA
TAF
KCWA 291720Z 2918/3018 11009KT P6SM OVC120
     FM292200 09006KT P6SM BKN080
     FM300200 09006KT P6SM VCSH BKN060
      TEMPO 3002/3005 5SM -RA BKN030
     FM300500 09006KT P6SM BKN030
      TEMPO 3005/3009 3SM -RASN BKN016
     FM300900 09007KT 3SM -SN BKN014
     FM301500 09009G15KT 4SM -RASN BKN020=

USA.gov is the U.S. government's official web portal to all federal, state and local government web resources and services.